Chapin, South Carolina
Current Conditions -  °F | °C
As of 11:35 AM on Thursday 30 Oct 2014 (Local Time) from KFDW Reporting Station
Clear Clear  
Wind Chill: 63°   Ceiling: Unl
Heat Index: 63°   Visibility: 10mi
Dew Point: 43°   Wind: 13mph
Humidity: 48%   Direction: 20°NNE
Pressure: 30.06"   Gusts: 18mph
Location:  34.17°N, 81.35°W
Report Text: KFDW 301535Z AUTO 02011G16KT 10SM CLR 17/06 A3006 RMK AO1
Loading
Personal Weather Stations






























Interactive Weather Map
Tropical Storm Tracking
New forecast layout! Learn more

10-Day Weather Forecast

Advertisements
Track Severe Weather on mobile